createdAt,value
2023-03-13T00:01:39.924Z,100.00
2023-03-13T00:04:10.193Z,100.00
2023-03-13T00:06:38.699Z,100.00
2023-03-13T00:09:11.109Z,100.00
2023-03-13T00:11:38.189Z,100.00
2023-03-13T00:14:06.357Z,100.00
2023-03-13T00:16:39.908Z,100.00
2023-03-13T00:19:12.092Z,100.00
2023-03-13T00:21:41.038Z,100.00
2023-03-13T00:24:12.783Z,100.00
2023-03-13T00:26:39.324Z,100.00
2023-03-13T00:29:08.097Z,100.00
2023-03-13T00:31:39.232Z,100.00
2023-03-13T00:34:11.561Z,100.00
2023-03-13T00:36:44.337Z,100.00
2023-03-13T00:39:11.098Z,100.00
2023-03-13T00:41:40.322Z,100.00
2023-03-13T00:44:09.604Z,100.00
2023-03-13T00:46:36.640Z,100.00
2023-03-13T00:49:03.344Z,100.00
2023-03-13T00:51:30.409Z,100.00
2023-03-13T00:54:01.753Z,100.00
2023-03-13T00:56:31.130Z,100.00
2023-03-13T00:58:59.779Z,100.00
2023-03-13T01:01:29.937Z,100.00
2023-03-13T01:04:03.587Z,100.00
2023-03-13T01:06:32.831Z,100.00
2023-03-13T01:09:00.360Z,100.00
2023-03-13T01:11:34.774Z,100.00
2023-03-13T01:14:08.004Z,100.00
2023-03-13T01:16:36.251Z,100.00
2023-03-13T01:19:11.217Z,100.00
2023-03-13T01:21:40.492Z,100.00
2023-03-13T01:24:11.425Z,100.00
2023-03-13T01:26:39.329Z,100.00
2023-03-13T01:29:07.942Z,100.00
2023-03-13T01:31:36.070Z,100.00
2023-03-13T01:34:10.514Z,100.00
2023-03-13T01:36:38.423Z,100.00
2023-03-13T01:39:14.206Z,100.00
2023-03-13T01:41:40.889Z,100.00
2023-03-13T01:44:23.721Z,100.00
2023-03-13T01:46:53.516Z,100.00
2023-03-13T01:49:36.056Z,100.00
2023-03-13T01:52:26.587Z,100.00
2023-03-13T01:55:10.096Z,100.00
2023-03-13T01:57:48.793Z,100.00
2023-03-13T02:00:25.056Z,100.00
2023-03-13T02:02:55.629Z,100.00
2023-03-13T02:05:25.776Z,100.00
2023-03-13T02:08:19.076Z,100.00
2023-03-13T02:10:53.609Z,100.00
2023-03-13T02:13:23.924Z,100.00
2023-03-13T02:15:51.416Z,100.00
2023-03-13T02:18:18.438Z,100.00
2023-03-13T02:20:52.140Z,100.00
2023-03-13T02:23:35.824Z,100.00
2023-03-13T02:26:03.445Z,100.00
2023-03-13T02:28:39.479Z,100.00
2023-03-13T02:31:11.736Z,100.00
2023-03-13T02:33:43.213Z,100.00
2023-03-13T02:36:14.675Z,100.00
2023-03-13T02:38:50.434Z,100.00
2023-03-13T02:41:19.488Z,100.00
2023-03-13T02:43:46.496Z,100.00
2023-03-13T02:46:18.186Z,100.00
2023-03-13T02:48:57.311Z,100.00
2023-03-13T02:51:31.922Z,100.00
2023-03-13T02:54:22.014Z,100.00
2023-03-13T02:56:54.670Z,100.00
2023-03-13T02:59:21.367Z,100.00
2023-03-13T03:01:54.182Z,100.00
2023-03-13T03:04:23.944Z,100.00
2023-03-13T03:06:55.192Z,100.00
2023-03-13T03:09:25.807Z,100.00
2023-03-13T03:11:57.229Z,100.00
2023-03-13T03:14:28.469Z,100.00
2023-03-13T03:16:55.246Z,100.00
2023-03-13T03:19:25.580Z,100.00
2023-03-13T03:21:54.413Z,100.00
2023-03-13T03:24:20.932Z,100.00
2023-03-13T03:26:48.282Z,100.00
2023-03-13T03:29:24.060Z,100.00
2023-03-13T03:31:54.673Z,100.00
2023-03-13T03:34:21.321Z,100.00
2023-03-13T03:36:52.329Z,100.00
2023-03-13T03:39:21.247Z,100.00
2023-03-13T03:41:49.649Z,100.00
2023-03-13T03:44:16.388Z,100.00
2023-03-13T03:46:50.988Z,100.00
2023-03-13T03:49:17.600Z,100.00
2023-03-13T03:51:44.416Z,100.00
2023-03-13T03:54:11.893Z,100.00
2023-03-13T03:56:41.064Z,100.00
2023-03-13T03:59:09.549Z,100.00
2023-03-13T04:01:44.280Z,100.00
2023-03-13T04:04:11.540Z,100.00
2023-03-13T04:06:41.022Z,100.00
2023-03-13T04:09:12.612Z,100.00
2023-03-13T04:11:39.520Z,100.00
2023-03-13T04:14:09.007Z,100.00
2023-03-13T04:16:36.061Z,100.00
2023-03-13T04:19:02.860Z,100.00
2023-03-13T04:21:30.239Z,100.00
2023-03-13T04:24:03.158Z,100.00
2023-03-13T04:26:31.282Z,100.00
2023-03-13T04:28:59.568Z,100.00
2023-03-13T04:31:40.357Z,100.00
2023-03-13T04:34:28.942Z,100.00
2023-03-13T04:37:12.731Z,100.00
2023-03-13T04:39:58.016Z,100.00
2023-03-13T04:42:41.408Z,100.00
2023-03-13T04:45:22.803Z,100.00
2023-03-13T04:47:57.502Z,100.00
2023-03-13T04:50:27.065Z,100.00
2023-03-13T04:53:11.870Z,100.00
2023-03-13T04:56:04.593Z,100.00
2023-03-13T04:58:49.587Z,100.00
2023-03-13T05:01:36.988Z,100.00
2023-03-13T05:04:33.724Z,100.00
2023-03-13T05:07:17.848Z,100.00
2023-03-13T05:10:03.250Z,100.00
2023-03-13T05:12:46.440Z,100.00
2023-03-13T05:15:23.716Z,100.00
2023-03-13T05:18:19.324Z,100.00
2023-03-13T05:21:02.207Z,100.00
2023-03-13T05:23:51.358Z,100.00
2023-03-13T05:26:36.770Z,100.00
2023-03-13T05:29:21.144Z,100.00
2023-03-13T05:32:09.439Z,100.00
2023-03-13T05:34:56.213Z,100.00
2023-03-13T05:37:43.888Z,100.00
2023-03-13T05:40:29.050Z,100.00
2023-03-13T05:43:23.071Z,100.00
2023-03-13T05:46:10.861Z,100.00
2023-03-13T05:48:54.084Z,100.00
2023-03-13T05:51:42.579Z,100.00
2023-03-13T05:54:39.340Z,100.00
2023-03-13T05:57:25.086Z,100.00
2023-03-13T06:00:04.101Z,100.00
2023-03-13T06:03:01.639Z,100.00
2023-03-13T06:05:40.021Z,100.00
2023-03-13T06:08:23.517Z,100.00
2023-03-13T06:10:51.669Z,100.00
2023-03-13T06:13:20.286Z,100.00
2023-03-13T06:15:57.845Z,100.00
2023-03-13T06:18:43.688Z,100.00
2023-03-13T06:21:12.608Z,100.00
2023-03-13T06:23:39.392Z,100.00
2023-03-13T06:26:05.959Z,100.00
2023-03-13T06:28:32.776Z,100.00
2023-03-13T06:31:04.926Z,100.00
2023-03-13T06:33:31.809Z,100.00
2023-03-13T06:36:03.101Z,100.00
2023-03-13T06:38:30.409Z,100.00
2023-03-13T06:40:57.165Z,100.00
2023-03-13T06:43:25.417Z,100.00
2023-03-13T06:45:53.306Z,100.00
2023-03-13T06:48:21.762Z,100.00
2023-03-13T06:50:51.327Z,100.00
2023-03-13T06:53:20.251Z,100.00
2023-03-13T06:55:49.147Z,100.00
2023-03-13T06:58:31.449Z,100.00
2023-03-13T07:01:08.968Z,100.00
2023-03-13T07:03:36.957Z,100.00
2023-03-13T07:06:05.771Z,100.00
2023-03-13T07:08:33.212Z,100.00
2023-03-13T07:11:03.169Z,100.00
2023-03-13T07:13:33.245Z,100.00
2023-03-13T07:16:01.285Z,100.00
2023-03-13T07:18:28.348Z,100.00
2023-03-13T07:20:56.050Z,100.00
2023-03-13T07:23:24.005Z,100.00
2023-03-13T07:25:59.193Z,100.00
2023-03-13T07:28:27.327Z,100.00
2023-03-13T07:30:54.355Z,100.00
2023-03-13T07:33:21.551Z,100.00
2023-03-13T07:35:52.084Z,100.00
2023-03-13T07:38:20.100Z,100.00
2023-03-13T07:40:51.560Z,100.00
2023-03-13T07:43:18.978Z,100.00
2023-03-13T07:46:02.625Z,100.00
2023-03-13T07:48:31.807Z,100.00
2023-03-13T07:51:01.525Z,100.00
2023-03-13T07:53:34.342Z,100.00
2023-03-13T07:56:06.644Z,100.00
2023-03-13T07:58:40.609Z,100.00
2023-03-13T08:01:27.350Z,100.00
2023-03-13T08:03:58.663Z,100.00
2023-03-13T08:06:27.706Z,100.00
2023-03-13T08:08:57.767Z,100.00
2023-03-13T08:11:26.260Z,100.00
2023-03-13T08:13:54.193Z,100.00
2023-03-13T08:16:23.646Z,100.00
2023-03-13T08:18:53.526Z,100.00
2023-03-13T08:21:23.304Z,100.00
2023-03-13T08:23:54.075Z,100.00
2023-03-13T08:26:22.866Z,100.00
2023-03-13T08:28:59.073Z,100.00
2023-03-13T08:31:28.989Z,100.00
2023-03-13T08:33:55.516Z,100.00
2023-03-13T08:36:33.943Z,100.00
2023-03-13T08:39:03.461Z,100.00
2023-03-13T08:41:36.553Z,100.00
2023-03-13T08:44:07.300Z,100.00
2023-03-13T08:46:36.167Z,100.00
2023-03-13T08:49:05.095Z,100.00
2023-03-13T08:51:34.696Z,100.00
2023-03-13T08:54:02.705Z,100.00
2023-03-13T08:56:34.911Z,100.00
2023-03-13T08:59:03.573Z,100.00
2023-03-13T09:01:34.194Z,100.00
2023-03-13T09:04:04.969Z,100.00
2023-03-13T09:06:37.996Z,100.00
2023-03-13T09:09:06.262Z,100.00
2023-03-13T09:11:33.378Z,100.00
2023-03-13T09:14:00.033Z,100.00
2023-03-13T09:16:29.982Z,100.00
2023-03-13T09:18:57.972Z,100.00
2023-03-13T09:21:29.589Z,100.00
2023-03-13T09:24:00.299Z,100.00
2023-03-13T09:26:31.348Z,100.00
2023-03-13T09:29:01.483Z,100.00
2023-03-13T09:31:32.896Z,100.00
2023-03-13T09:34:00.525Z,100.00
2023-03-13T09:36:32.091Z,100.00
2023-03-13T09:39:00.414Z,100.00
2023-03-13T09:41:34.616Z,100.00
2023-03-13T09:44:33.631Z,100.00
2023-03-13T09:47:14.567Z,100.00
2023-03-13T09:49:45.618Z,100.00
2023-03-13T09:52:43.834Z,100.00
2023-03-13T09:55:22.976Z,100.00
2023-03-13T09:58:02.310Z,100.00
2023-03-13T10:00:50.222Z,100.00
2023-03-13T10:03:31.624Z,100.00
2023-03-13T10:06:04.605Z,100.00
2023-03-13T10:08:34.025Z,100.00
2023-03-13T10:11:12.620Z,100.00
2023-03-13T10:13:49.213Z,100.00
2023-03-13T10:16:23.154Z,100.00
2023-03-13T10:18:58.446Z,100.00
2023-03-13T10:21:32.632Z,100.00
2023-03-13T10:24:33.748Z,100.00
2023-03-13T10:27:00.455Z,100.00
2023-03-13T10:29:32.930Z,100.00
2023-03-13T10:32:01.802Z,100.00
2023-03-13T10:34:49.823Z,100.00
2023-03-13T10:37:21.603Z,100.00
2023-03-13T10:39:57.303Z,100.00
2023-03-13T10:42:32.527Z,100.00
2023-03-13T10:45:04.362Z,100.00
2023-03-13T10:47:37.833Z,100.00
2023-03-13T10:50:05.255Z,100.00
2023-03-13T10:52:41.330Z,100.00
2023-03-13T10:55:13.510Z,100.00
2023-03-13T10:57:44.393Z,100.00
2023-03-13T11:00:30.409Z,100.00
2023-03-13T11:02:59.504Z,100.00
2023-03-13T11:05:31.772Z,100.00
2023-03-13T11:07:58.679Z,100.00
2023-03-13T11:10:31.141Z,100.00
2023-03-13T11:13:01.023Z,100.00
2023-03-13T11:15:35.317Z,100.00
2023-03-13T11:18:23.601Z,100.00
2023-03-13T11:20:50.946Z,100.00
2023-03-13T11:23:17.592Z,100.00
2023-03-13T11:25:58.954Z,100.00
2023-03-13T11:28:44.178Z,100.00
2023-03-13T11:31:24.888Z,100.00
2023-03-13T11:33:57.613Z,100.00
2023-03-13T11:36:49.411Z,100.00
2023-03-13T11:39:40.984Z,99.60
2023-03-13T11:42:31.633Z,99.11
2023-03-13T11:45:10.506Z,99.47
2023-03-13T11:47:54.752Z,97.31
2023-03-13T11:50:44.929Z,96.86
2023-03-13T11:53:50.014Z,96.64
2023-03-13T11:56:26.532Z,97.30
2023-03-13T11:59:07.058Z,96.51
2023-03-13T12:01:46.243Z,96.36
2023-03-13T12:04:34.167Z,96.00
2023-03-13T12:07:21.261Z,94.30
2023-03-13T12:09:58.734Z,93.30
2023-03-13T12:12:38.706Z,92.23
2023-03-13T12:15:16.148Z,92.99
2023-03-13T12:17:55.808Z,91.02
2023-03-13T12:20:41.379Z,89.46
2023-03-13T12:23:10.330Z,90.38
2023-03-13T12:25:44.946Z,89.84
2023-03-13T12:28:24.760Z,89.56
2023-03-13T12:31:06.580Z,89.19
2023-03-13T12:33:54.986Z,87.98
2023-03-13T12:36:29.557Z,89.99
2023-03-13T12:39:07.581Z,90.39
2023-03-13T12:41:54.398Z,90.86
2023-03-13T12:44:21.226Z,91.44
2023-03-13T12:46:48.977Z,87.92
2023-03-13T12:49:34.176Z,88.32
2023-03-13T12:52:57.366Z,86.68
2023-03-13T12:55:40.734Z,86.29
2023-03-13T12:58:39.630Z,85.29
2023-03-13T13:01:11.386Z,85.88
2023-03-13T13:03:50.797Z,85.24
2023-03-13T13:06:18.196Z,84.18
2023-03-13T13:08:54.480Z,84.16
2023-03-13T13:11:39.492Z,84.55
2023-03-13T13:14:25.948Z,83.82
2023-03-13T13:16:59.389Z,85.31
2023-03-13T13:19:25.959Z,85.53
2023-03-13T13:22:30.202Z,83.12
2023-03-13T13:25:04.306Z,83.19
2023-03-13T13:27:32.291Z,82.78
2023-03-13T13:30:00.900Z,80.19
2023-03-13T13:32:39.216Z,81.52
2023-03-13T13:35:21.409Z,78.74
2023-03-13T13:37:49.707Z,81.13
2023-03-13T13:40:18.817Z,81.34
2023-03-13T13:42:54.838Z,81.60
2023-03-13T13:45:36.623Z,80.53
2023-03-13T13:48:36.425Z,79.91
2023-03-13T13:51:13.314Z,80.74
2023-03-13T13:54:01.213Z,80.29
2023-03-13T13:56:34.788Z,82.03
2023-03-13T13:59:20.313Z,81.54
2023-03-13T14:01:49.063Z,80.56
2023-03-13T14:04:36.097Z,78.08
2023-03-13T14:07:05.917Z,80.53
2023-03-13T14:10:02.008Z,78.96
2023-03-13T14:12:38.011Z,78.96
2023-03-13T14:15:17.496Z,78.13
2023-03-13T14:17:51.765Z,79.68
2023-03-13T14:20:24.969Z,78.59
2023-03-13T14:22:53.724Z,79.32
2023-03-13T14:25:21.983Z,78.46
2023-03-13T14:27:54.192Z,77.97
2023-03-13T14:30:22.984Z,76.65
2023-03-13T14:32:53.962Z,77.87
2023-03-13T14:35:22.961Z,76.98
2023-03-13T14:37:53.332Z,76.89
2023-03-13T14:40:26.526Z,77.83
2023-03-13T14:42:56.610Z,76.88
2023-03-13T14:45:34.852Z,76.57
2023-03-13T14:48:14.353Z,76.87
2023-03-13T14:50:41.107Z,77.91
2023-03-13T14:53:12.757Z,75.53
2023-03-13T14:55:43.348Z,78.05
2023-03-13T14:58:21.200Z,76.21
2023-03-13T15:00:50.184Z,77.08
2023-03-13T15:03:17.176Z,76.67
2023-03-13T15:06:12.656Z,73.62
2023-03-13T15:08:45.726Z,76.62
2023-03-13T15:11:34.078Z,74.91
2023-03-13T15:14:01.543Z,75.59
2023-03-13T15:16:29.846Z,77.17
2023-03-13T15:18:57.060Z,77.58
2023-03-13T15:21:25.275Z,77.22
2023-03-13T15:24:12.856Z,75.57
2023-03-13T15:26:39.627Z,77.59
2023-03-13T15:29:06.269Z,77.23
2023-03-13T15:31:33.108Z,77.06
2023-03-13T15:34:01.303Z,75.05
2023-03-13T15:36:30.505Z,76.30
2023-03-13T15:38:59.593Z,76.29
2023-03-13T15:41:26.389Z,76.29
2023-03-13T15:43:55.420Z,73.68
2023-03-13T15:46:24.010Z,76.35
2023-03-13T15:48:56.851Z,76.01
2023-03-13T15:51:23.547Z,77.17
2023-03-13T15:53:54.153Z,77.08
2023-03-13T15:56:25.586Z,75.94
2023-03-13T15:58:52.279Z,76.80
2023-03-13T16:01:23.114Z,76.64
2023-03-13T16:03:49.769Z,75.98
2023-03-13T16:06:31.515Z,75.31
2023-03-13T16:09:02.604Z,76.91
2023-03-13T16:11:29.920Z,76.59
2023-03-13T16:13:57.506Z,74.91
2023-03-13T16:16:30.477Z,74.18
2023-03-13T16:19:00.131Z,76.74
2023-03-13T16:21:31.913Z,76.72
2023-03-13T16:23:58.877Z,77.07
2023-03-13T16:26:28.513Z,75.83
2023-03-13T16:28:55.617Z,77.16
2023-03-13T16:31:25.589Z,76.27
2023-03-13T16:33:54.093Z,75.42
2023-03-13T16:36:28.485Z,76.67
2023-03-13T16:38:57.453Z,76.76
2023-03-13T16:41:28.780Z,77.26
2023-03-13T16:43:55.950Z,77.32
2023-03-13T16:46:32.516Z,76.72
2023-03-13T16:49:01.295Z,75.34
2023-03-13T16:51:28.499Z,76.87
2023-03-13T16:53:56.550Z,75.36
2023-03-13T16:56:28.928Z,73.86
2023-03-13T16:58:56.763Z,75.52
2023-03-13T17:01:29.966Z,76.23
2023-03-13T17:03:58.135Z,75.75
2023-03-13T17:06:31.804Z,75.48
2023-03-13T17:08:58.926Z,75.72
2023-03-13T17:11:25.618Z,75.77
2023-03-13T17:13:53.179Z,76.04
2023-03-13T17:16:27.681Z,75.61
2023-03-13T17:18:54.274Z,76.47
2023-03-13T17:21:24.107Z,75.02
2023-03-13T17:23:51.338Z,75.82
2023-03-13T17:26:24.072Z,75.02
2023-03-13T17:28:54.796Z,75.29
2023-03-13T17:31:23.920Z,75.88
2023-03-13T17:33:50.606Z,75.88
2023-03-13T17:36:24.248Z,74.99
2023-03-13T17:38:55.485Z,75.16
2023-03-13T17:41:25.532Z,76.04
2023-03-13T17:43:54.665Z,76.10
2023-03-13T17:46:22.842Z,76.40
2023-03-13T17:48:54.093Z,77.03
2023-03-13T17:51:28.379Z,76.89
2023-03-13T17:53:56.308Z,77.30
2023-03-13T17:56:26.938Z,77.53
2023-03-13T17:58:58.939Z,77.40
2023-03-13T18:01:30.416Z,77.81
2023-03-13T18:04:02.828Z,77.99
2023-03-13T18:06:32.931Z,77.92
2023-03-13T18:09:08.044Z,78.36
2023-03-13T18:11:36.611Z,76.66
2023-03-13T18:14:04.271Z,77.57
2023-03-13T18:16:43.345Z,77.75
2023-03-13T18:19:16.930Z,78.18
2023-03-13T18:21:44.782Z,78.33
2023-03-13T18:24:12.869Z,78.63
2023-03-13T18:26:42.350Z,78.24
2023-03-13T18:29:28.762Z,79.06
2023-03-13T18:31:58.759Z,79.47
2023-03-13T18:34:31.958Z,79.62
2023-03-13T18:37:03.768Z,80.10
2023-03-13T18:39:33.807Z,79.58
2023-03-13T18:42:01.893Z,79.94
2023-03-13T18:44:31.707Z,79.87
2023-03-13T18:46:58.264Z,80.04
2023-03-13T18:49:25.335Z,80.28
2023-03-13T18:51:54.354Z,79.89
2023-03-13T18:54:21.008Z,79.98
2023-03-13T18:56:51.730Z,80.29
2023-03-13T18:59:21.343Z,80.26
2023-03-13T19:01:49.344Z,80.25
2023-03-13T19:04:22.345Z,80.71
2023-03-13T19:06:53.855Z,80.80
2023-03-13T19:09:43.100Z,80.82
2023-03-13T19:12:10.539Z,81.01
2023-03-13T19:14:37.867Z,81.18
2023-03-13T19:17:08.969Z,81.10
2023-03-13T19:19:35.482Z,81.33
2023-03-13T19:22:02.122Z,81.47
2023-03-13T19:24:29.462Z,81.40
2023-03-13T19:26:59.351Z,81.48
2023-03-13T19:29:26.988Z,81.43
2023-03-13T19:31:54.722Z,81.39
2023-03-13T19:34:23.419Z,81.52
2023-03-13T19:36:53.496Z,81.31
2023-03-13T19:39:24.265Z,81.10
2023-03-13T19:41:51.161Z,81.19
2023-03-13T19:44:18.770Z,81.17
2023-03-13T19:46:45.865Z,80.89
2023-03-13T19:49:16.322Z,80.97
2023-03-13T19:51:46.442Z,81.04
2023-03-13T19:54:13.305Z,81.16
2023-03-13T19:56:41.444Z,81.38
2023-03-13T19:59:23.251Z,81.56
2023-03-13T20:01:50.475Z,81.25
2023-03-13T20:04:19.320Z,81.37
2023-03-13T20:06:45.710Z,81.56
2023-03-13T20:09:16.723Z,81.43
2023-03-13T20:11:44.360Z,81.29
2023-03-13T20:14:19.408Z,80.89
2023-03-13T20:16:50.738Z,80.12
2023-03-13T20:19:17.931Z,80.98
2023-03-13T20:21:44.492Z,80.96
2023-03-13T20:24:11.124Z,80.60
2023-03-13T20:26:38.008Z,80.33
2023-03-13T20:29:04.812Z,80.82
2023-03-13T20:31:32.031Z,80.20
2023-03-13T20:33:59.209Z,80.73
2023-03-13T20:36:26.589Z,79.72
2023-03-13T20:38:53.411Z,80.41
2023-03-13T20:41:25.863Z,80.34
2023-03-13T20:43:54.613Z,80.36
2023-03-13T20:46:21.519Z,80.08
2023-03-13T20:48:50.481Z,79.79
2023-03-13T20:51:19.677Z,80.49
2023-03-13T20:53:54.944Z,80.36
2023-03-13T20:56:21.370Z,80.89
2023-03-13T20:58:52.872Z,80.98
2023-03-13T21:01:19.851Z,80.82
2023-03-13T21:03:46.548Z,80.99
2023-03-13T21:06:19.353Z,80.37
2023-03-13T21:08:46.816Z,80.85
2023-03-13T21:11:16.576Z,81.10
2023-03-13T21:13:44.251Z,81.33
2023-03-13T21:16:15.742Z,81.40
2023-03-13T21:18:42.639Z,81.41
2023-03-13T21:21:15.017Z,81.27
2023-03-13T21:23:41.698Z,81.55
2023-03-13T21:26:13.801Z,81.54
2023-03-13T21:28:40.870Z,81.31
2023-03-13T21:31:08.913Z,81.45
2023-03-13T21:33:35.408Z,81.22
2023-03-13T21:36:02.927Z,81.49
2023-03-13T21:38:29.748Z,81.16
2023-03-13T21:40:56.181Z,81.27
2023-03-13T21:43:23.730Z,81.50
2023-03-13T21:45:50.137Z,81.75
2023-03-13T21:48:16.643Z,81.57
2023-03-13T21:50:43.526Z,81.40
2023-03-13T21:53:13.910Z,81.50
2023-03-13T21:55:40.429Z,81.15
2023-03-13T21:58:07.021Z,81.24
2023-03-13T22:00:35.383Z,80.94
2023-03-13T22:03:09.917Z,81.16
2023-03-13T22:05:43.746Z,81.16
2023-03-13T22:08:10.980Z,80.89
2023-03-13T22:10:42.873Z,81.05
2023-03-13T22:13:12.859Z,81.06
2023-03-13T22:15:46.760Z,81.03
2023-03-13T22:18:14.644Z,81.13
2023-03-13T22:20:41.447Z,81.26
2023-03-13T22:23:14.610Z,81.38
2023-03-13T22:25:42.605Z,81.46
2023-03-13T22:28:15.559Z,81.50
2023-03-13T22:30:46.122Z,81.83
2023-03-13T22:33:12.991Z,81.75
2023-03-13T22:35:39.897Z,82.02
2023-03-13T22:38:09.182Z,82.33
2023-03-13T22:40:38.912Z,82.12
2023-03-13T22:43:05.360Z,82.32
2023-03-13T22:45:34.054Z,82.60
2023-03-13T22:48:06.674Z,82.55
2023-03-13T22:50:38.004Z,83.02
2023-03-13T22:53:04.497Z,83.39
2023-03-13T22:55:35.090Z,83.52
2023-03-13T22:58:02.493Z,83.81
2023-03-13T23:00:28.975Z,84.26
2023-03-13T23:02:55.504Z,84.78
2023-03-13T23:05:22.266Z,85.47
2023-03-13T23:07:50.804Z,85.35
2023-03-13T23:10:18.639Z,85.51
2023-03-13T23:12:45.160Z,85.89
2023-03-13T23:15:11.834Z,86.44
2023-03-13T23:17:38.596Z,86.69
2023-03-13T23:20:14.668Z,87.16
2023-03-13T23:22:45.168Z,87.22
2023-03-13T23:25:12.806Z,86.98
2023-03-13T23:27:40.021Z,87.37
2023-03-13T23:30:12.464Z,87.08
2023-03-13T23:32:40.657Z,87.14
2023-03-13T23:35:11.215Z,87.67
2023-03-13T23:37:37.651Z,87.85
2023-03-13T23:40:05.876Z,87.81
2023-03-13T23:42:33.012Z,87.97
2023-03-13T23:45:02.397Z,87.83
2023-03-13T23:47:30.031Z,88.08
2023-03-13T23:49:56.516Z,88.32
2023-03-13T23:52:23.217Z,88.76
2023-03-13T23:54:56.105Z,88.46
2023-03-13T23:57:22.632Z,88.23
2023-03-13T23:59:53.029Z,88.44
